createdAt,value
2018-06-05T00:01:42.832Z,17.40
2018-06-05T00:04:11.656Z,17.40
2018-06-05T00:06:40.477Z,17.40
2018-06-05T00:09:09.300Z,17.40
2018-06-05T00:11:38.110Z,17.40
2018-06-05T00:14:06.930Z,17.40
2018-06-05T00:16:35.729Z,17.40
2018-06-05T00:19:04.566Z,17.30
2018-06-05T00:21:33.370Z,17.30
2018-06-05T00:24:02.187Z,17.30
2018-06-05T00:26:30.998Z,17.30
2018-06-05T00:29:00.190Z,17.30
2018-06-05T00:31:29.006Z,17.30
2018-06-05T00:33:57.818Z,17.30
2018-06-05T00:36:27.066Z,17.20
2018-06-05T00:38:55.850Z,17.20
2018-06-05T00:41:24.742Z,17.20
2018-06-05T00:43:53.542Z,17.20
2018-06-05T00:46:22.368Z,17.20
2018-06-05T00:48:51.171Z,17.20
2018-06-05T00:51:31.598Z,17.20
2018-06-05T00:54:00.428Z,17.20
2018-06-05T00:56:29.229Z,17.20
2018-06-05T00:58:58.097Z,17.20
2018-06-05T01:01:26.922Z,17.20
2018-06-05T01:03:56.030Z,17.20
2018-06-05T01:06:24.869Z,17.20
2018-06-05T01:08:53.717Z,17.20
2018-06-05T01:11:22.540Z,17.10
2018-06-05T01:13:51.809Z,17.10
2018-06-05T01:16:20.605Z,17.00
2018-06-05T01:18:49.405Z,17.00
2018-06-05T01:21:18.219Z,17.00
2018-06-05T01:23:47.030Z,17.00
2018-06-05T01:26:15.866Z,17.00
2018-06-05T01:28:44.661Z,17.00
2018-06-05T01:31:13.474Z,17.00
2018-06-05T01:33:42.285Z,17.00
2018-06-05T01:36:11.089Z,16.90
2018-06-05T01:38:39.895Z,16.90
2018-06-05T01:41:08.725Z,16.90
2018-06-05T01:43:37.552Z,16.90
2018-06-05T01:46:06.371Z,16.90
2018-06-05T01:48:35.273Z,16.90
2018-06-05T01:51:04.378Z,16.90
2018-06-05T01:53:33.214Z,16.90
2018-06-05T01:56:02.027Z,16.90
2018-06-05T01:58:30.851Z,16.90
2018-06-05T02:00:59.659Z,16.90
2018-06-05T02:03:28.490Z,16.90
2018-06-05T02:05:57.298Z,16.90
2018-06-05T02:08:26.104Z,16.90
2018-06-05T02:10:55.103Z,16.90
2018-06-05T02:13:23.992Z,16.80
2018-06-05T02:15:52.800Z,16.80
2018-06-05T02:18:21.607Z,16.80
2018-06-05T02:20:50.412Z,16.80
2018-06-05T02:23:19.234Z,16.80
2018-06-05T02:25:48.072Z,16.70
2018-06-05T02:30:45.383Z,16.60
2018-06-05T02:33:14.219Z,16.60
2018-06-05T02:35:43.431Z,16.60
2018-06-05T02:38:12.240Z,16.60
2018-06-05T02:40:41.152Z,16.60
2018-06-05T02:43:10.039Z,16.70
2018-06-05T02:45:38.864Z,16.70
2018-06-05T02:48:07.679Z,16.70
2018-06-05T02:50:36.499Z,16.60
2018-06-05T02:53:05.438Z,16.60
2018-06-05T02:55:34.239Z,16.60
2018-06-05T02:58:03.059Z,16.60
2018-06-05T03:00:31.859Z,16.60
2018-06-05T03:03:00.700Z,16.60
2018-06-05T03:05:29.507Z,16.60
2018-06-05T03:07:58.342Z,16.60
2018-06-05T03:10:27.187Z,16.60
2018-06-05T03:12:56.027Z,16.60
2018-06-05T03:15:24.847Z,16.50
2018-06-05T03:17:53.672Z,16.50
2018-06-05T03:20:22.909Z,16.50
2018-06-05T03:22:51.728Z,16.40
2018-06-05T03:25:20.547Z,16.40
2018-06-05T03:27:49.408Z,16.40
2018-06-05T03:30:18.225Z,16.40
2018-06-05T03:32:47.078Z,16.50
2018-06-05T03:35:15.887Z,16.50
2018-06-05T03:37:44.766Z,16.50
2018-06-05T03:40:13.574Z,16.50
2018-06-05T03:42:42.400Z,16.50
2018-06-05T03:45:11.952Z,16.40
2018-06-05T03:47:40.773Z,16.40
2018-06-05T03:50:09.595Z,16.40
2018-06-05T03:52:38.411Z,16.50
2018-06-05T03:55:07.231Z,16.50
2018-06-05T03:57:36.060Z,16.50
2018-06-05T04:00:05.199Z,16.50
2018-06-05T04:02:34.014Z,16.50
2018-06-05T04:05:02.852Z,16.50
2018-06-05T04:10:00.263Z,16.40
2018-06-05T04:12:29.080Z,16.40
2018-06-05T04:14:57.906Z,16.40
2018-06-05T04:17:26.721Z,16.30
2018-06-05T04:19:55.548Z,16.30
2018-06-05T04:22:24.395Z,16.30
2018-06-05T04:24:53.224Z,16.20
2018-06-05T04:27:22.043Z,16.20
2018-06-05T04:29:50.864Z,16.20
2018-06-05T04:32:19.674Z,16.10
2018-06-05T04:34:48.520Z,16.10
2018-06-05T04:37:17.340Z,16.10
2018-06-05T04:39:46.249Z,16.00
2018-06-05T04:42:15.071Z,16.00
2018-06-05T04:44:43.885Z,16.00
2018-06-05T04:47:12.705Z,16.00
2018-06-05T04:49:41.588Z,16.00
2018-06-05T04:52:11.917Z,16.00
2018-06-05T04:54:40.712Z,16.00
2018-06-05T04:57:10.144Z,16.10
2018-06-05T04:59:38.966Z,16.10
2018-06-05T05:02:08.035Z,16.10
2018-06-05T05:04:36.859Z,16.10
2018-06-05T05:07:05.683Z,16.10
2018-06-05T05:09:34.526Z,16.10
2018-06-05T05:12:03.442Z,16.10
2018-06-05T05:14:32.255Z,16.10
2018-06-05T05:17:01.114Z,16.10
2018-06-05T05:19:29.931Z,16.10
2018-06-05T05:21:58.751Z,16.10
2018-06-05T05:24:27.578Z,16.10
2018-06-05T05:26:56.395Z,16.10
2018-06-05T05:29:25.216Z,16.10
2018-06-05T05:31:54.039Z,16.20
2018-06-05T05:34:22.851Z,16.10
2018-06-05T05:36:51.679Z,16.10
2018-06-05T05:39:20.506Z,16.10
2018-06-05T05:41:49.330Z,16.10
2018-06-05T05:44:18.138Z,16.20
2018-06-05T05:46:47.620Z,16.20
2018-06-05T05:49:16.415Z,16.20
2018-06-05T05:54:13.852Z,16.10
2018-06-05T05:56:42.687Z,16.10
2018-06-05T05:59:11.505Z,16.10
2018-06-05T06:01:40.334Z,16.20
2018-06-05T06:04:09.155Z,16.20
2018-06-05T06:06:37.983Z,16.20
2018-06-05T06:09:07.716Z,16.20
2018-06-05T06:11:36.563Z,16.30
2018-06-05T06:14:05.387Z,16.40
2018-06-05T06:16:34.207Z,16.50
2018-06-05T06:19:03.024Z,16.60
2018-06-05T06:21:31.847Z,16.60
2018-06-05T06:24:00.743Z,16.70
2018-06-05T06:26:29.571Z,16.70
2018-06-05T06:28:58.391Z,16.70
2018-06-05T06:31:27.261Z,16.80
2018-06-05T06:33:56.075Z,16.80
2018-06-05T06:36:25.006Z,16.80
2018-06-05T06:38:53.794Z,16.80
2018-06-05T06:41:22.631Z,16.90
2018-06-05T06:43:51.615Z,16.90
2018-06-05T06:48:49.015Z,17.00
2018-06-05T06:51:17.775Z,17.10
2018-06-05T06:53:46.620Z,17.20
2018-06-05T06:56:15.434Z,17.30
2018-06-05T06:58:44.344Z,17.30
2018-06-05T07:01:13.167Z,17.30
2018-06-05T07:03:42.036Z,17.30
2018-06-05T07:06:11.203Z,17.30
2018-06-05T07:11:08.827Z,17.40
2018-06-05T07:13:37.639Z,17.30
2018-06-05T07:16:06.435Z,17.30
2018-06-05T07:18:35.255Z,17.30
2018-06-05T07:21:04.059Z,17.30
2018-06-05T07:23:32.886Z,17.30
2018-06-05T07:26:01.683Z,17.40
2018-06-05T07:28:30.502Z,17.50
2018-06-05T07:30:59.312Z,17.50
2018-06-05T07:33:28.126Z,17.30
2018-06-05T07:35:56.938Z,17.20
2018-06-05T07:38:25.747Z,17.30
2018-06-05T07:40:54.579Z,17.30
2018-06-05T07:43:23.399Z,17.30
2018-06-05T07:45:52.631Z,17.40
2018-06-05T07:48:21.439Z,17.50
2018-06-05T07:50:50.264Z,17.50
2018-06-05T07:53:19.082Z,17.60
2018-06-05T07:55:48.174Z,17.60
2018-06-05T07:58:17.358Z,17.50
2018-06-05T08:00:46.226Z,17.40
2018-06-05T08:03:15.050Z,17.40
2018-06-05T08:08:12.520Z,17.50
2018-06-05T08:10:41.880Z,17.50
2018-06-05T08:13:11.651Z,17.60
2018-06-05T08:15:40.482Z,17.70
2018-06-05T08:18:09.311Z,17.80
2018-06-05T08:20:38.146Z,17.80
2018-06-05T08:23:06.975Z,17.80
2018-06-05T08:25:35.818Z,17.90
2018-06-05T08:28:04.643Z,17.90
2018-06-05T08:30:33.466Z,17.90
2018-06-05T08:33:02.290Z,18.00
2018-06-05T08:35:31.137Z,18.00
2018-06-05T08:37:59.999Z,18.10
2018-06-05T08:40:28.801Z,18.20
2018-06-05T08:42:57.615Z,18.40
2018-06-05T08:45:26.447Z,18.20
2018-06-05T08:47:55.262Z,18.30
2018-06-05T08:50:24.455Z,18.40
2018-06-05T08:52:54.335Z,18.60
2018-06-05T08:55:23.199Z,18.80
2018-06-05T08:57:52.039Z,18.80
2018-06-05T09:00:20.860Z,18.90
2018-06-05T09:02:49.682Z,18.80
2018-06-05T09:05:18.538Z,19.00
2018-06-05T09:07:47.312Z,19.00
2018-06-05T09:10:16.137Z,19.00
2018-06-05T09:12:44.984Z,19.10
2018-06-05T09:15:13.803Z,19.10
2018-06-05T09:17:42.603Z,19.30
2018-06-05T09:20:11.411Z,19.50
2018-06-05T09:22:40.239Z,19.60
2018-06-05T09:25:09.054Z,19.70
2018-06-05T09:27:37.867Z,19.80
2018-06-05T09:30:06.682Z,19.90
2018-06-05T09:32:35.563Z,20.00
2018-06-05T09:35:04.382Z,20.10
2018-06-05T09:37:33.200Z,20.20
2018-06-05T09:40:02.048Z,20.20
2018-06-05T09:42:30.858Z,20.20
2018-06-05T09:44:59.719Z,20.30
2018-06-05T09:47:28.505Z,20.40
2018-06-05T09:49:57.307Z,20.40
2018-06-05T09:52:26.168Z,20.60
2018-06-05T09:54:54.956Z,20.80
2018-06-05T09:57:23.779Z,20.90
2018-06-05T09:59:52.580Z,21.10
2018-06-05T10:02:21.403Z,21.50
2018-06-05T10:04:50.211Z,21.90
2018-06-05T10:07:19.034Z,22.20
2018-06-05T10:09:48.148Z,22.50
2018-06-05T10:12:16.982Z,22.80
2018-06-05T10:14:45.799Z,22.70
2018-06-05T10:17:14.610Z,22.40
2018-06-05T10:19:43.432Z,22.20
2018-06-05T10:22:12.239Z,21.90
2018-06-05T10:24:41.059Z,21.90
2018-06-05T10:27:11.048Z,22.30
2018-06-05T10:29:39.834Z,22.90
2018-06-05T10:32:08.642Z,23.60
2018-06-05T10:34:37.451Z,24.00
2018-06-05T10:37:06.272Z,24.10
2018-06-05T10:39:35.088Z,24.50
2018-06-05T10:42:03.896Z,24.30
2018-06-05T10:44:32.708Z,24.10
2018-06-05T10:47:01.532Z,23.80
2018-06-05T10:49:30.981Z,23.30
2018-06-05T10:51:59.787Z,22.60
2018-06-05T10:54:28.592Z,22.50
2018-06-05T10:56:57.479Z,22.70
2018-06-05T10:59:26.293Z,22.80
2018-06-05T11:01:56.130Z,22.80
2018-06-05T11:04:24.922Z,22.90
2018-06-05T11:06:53.779Z,22.70
2018-06-05T11:09:23.307Z,22.20
2018-06-05T11:11:52.133Z,21.70
2018-06-05T11:14:20.951Z,21.90
2018-06-05T11:16:49.770Z,22.00
2018-06-05T11:19:18.590Z,21.70
2018-06-05T11:21:47.407Z,21.20
2018-06-05T11:24:16.308Z,21.00
2018-06-05T11:26:45.198Z,20.50
2018-06-05T11:29:15.004Z,20.40
2018-06-05T11:31:43.826Z,20.50
2018-06-05T11:34:12.651Z,20.60
2018-06-05T11:36:41.912Z,20.80
2018-06-05T11:39:10.726Z,20.80
2018-06-05T11:41:39.546Z,20.80
2018-06-05T11:44:08.391Z,20.80
2018-06-05T11:46:37.239Z,20.90
2018-06-05T11:49:06.048Z,21.00
2018-06-05T11:51:34.863Z,20.90
2018-06-05T11:54:03.769Z,20.60
2018-06-05T11:56:32.526Z,20.60
2018-06-05T11:59:01.863Z,20.70
2018-06-05T12:01:30.719Z,20.70
2018-06-05T12:03:59.763Z,20.50
2018-06-05T12:06:28.575Z,20.50
2018-06-05T12:08:57.414Z,20.50
2018-06-05T12:11:26.232Z,20.70
2018-06-05T12:13:55.039Z,20.70
2018-06-05T12:16:23.847Z,20.70
2018-06-05T12:18:52.667Z,20.60
2018-06-05T12:21:21.475Z,20.70
2018-06-05T12:23:50.290Z,20.70
2018-06-05T12:26:19.095Z,20.80
2018-06-05T12:28:47.979Z,20.90
2018-06-05T12:31:16.871Z,20.90
2018-06-05T12:33:45.659Z,21.00
2018-06-05T12:36:14.462Z,21.10
2018-06-05T12:38:43.305Z,21.10
2018-06-05T12:41:12.100Z,21.10
2018-06-05T12:43:40.916Z,21.10
2018-06-05T12:46:09.736Z,21.10
2018-06-05T12:48:38.532Z,21.20
2018-06-05T12:51:07.869Z,21.20
2018-06-05T12:53:36.668Z,21.20
2018-06-05T12:56:05.572Z,21.20
2018-06-05T12:58:34.454Z,21.20
2018-06-05T13:01:03.249Z,21.00
2018-06-05T13:03:32.062Z,21.10
2018-06-05T13:06:00.875Z,21.20
2018-06-05T13:08:29.694Z,21.40
2018-06-05T13:10:58.523Z,21.40
2018-06-05T13:13:27.347Z,21.50
2018-06-05T13:15:56.165Z,21.40
2018-06-05T13:18:24.982Z,21.40
2018-06-05T13:20:53.803Z,21.40
2018-06-05T13:23:22.616Z,21.40
2018-06-05T13:25:51.442Z,21.30
2018-06-05T13:28:20.272Z,21.10
2018-06-05T13:30:50.175Z,21.10
2018-06-05T13:33:19.611Z,21.10
2018-06-05T13:35:48.443Z,21.10
2018-06-05T13:38:17.267Z,20.90
2018-06-05T13:40:46.103Z,20.80
2018-06-05T13:43:14.923Z,20.90
2018-06-05T13:45:43.742Z,21.00
2018-06-05T13:48:12.555Z,21.00
2018-06-05T13:50:41.382Z,20.90
2018-06-05T13:53:10.215Z,20.80
2018-06-05T13:55:39.044Z,20.90
2018-06-05T13:58:08.435Z,21.00
2018-06-05T14:00:37.251Z,21.20
2018-06-05T14:03:06.079Z,21.40
2018-06-05T14:05:34.904Z,21.50
2018-06-05T14:08:03.805Z,21.50
2018-06-05T14:10:32.640Z,21.60
2018-06-05T14:13:01.461Z,21.50
2018-06-05T14:15:30.271Z,21.30
2018-06-05T14:17:59.974Z,21.20
2018-06-05T14:20:28.791Z,21.10
2018-06-05T14:22:57.607Z,21.00
2018-06-05T14:25:26.429Z,21.10
2018-06-05T14:27:55.250Z,21.10
2018-06-05T14:30:24.085Z,21.00
2018-06-05T14:32:52.919Z,21.10
2018-06-05T14:35:21.761Z,21.20
2018-06-05T14:37:50.576Z,21.20
2018-06-05T14:40:19.910Z,21.20
2018-06-05T14:42:48.727Z,21.40
2018-06-05T14:45:17.675Z,21.50
2018-06-05T14:47:46.383Z,21.60
2018-06-05T14:50:15.213Z,21.60
2018-06-05T14:52:44.049Z,21.70
2018-06-05T14:55:12.864Z,21.70
2018-06-05T14:57:41.691Z,21.60
2018-06-05T15:00:10.533Z,21.60
2018-06-05T15:02:39.359Z,21.60
2018-06-05T15:05:08.177Z,21.50
2018-06-05T15:07:37.044Z,21.50
2018-06-05T15:10:05.844Z,21.40
2018-06-05T15:15:03.157Z,21.50
2018-06-05T15:17:31.970Z,21.50
2018-06-05T15:20:00.778Z,21.40
2018-06-05T15:22:29.595Z,21.30
2018-06-05T15:24:58.406Z,21.30
2018-06-05T15:27:27.214Z,21.30
2018-06-05T15:29:56.020Z,21.30
2018-06-05T15:32:24.828Z,21.30
2018-06-05T15:34:53.626Z,21.40
2018-06-05T15:37:22.440Z,21.50
2018-06-05T15:39:52.086Z,21.50
2018-06-05T15:42:20.971Z,21.50
2018-06-05T15:44:49.711Z,21.50
2018-06-05T15:47:18.547Z,21.50
2018-06-05T15:49:47.368Z,21.60
2018-06-05T15:52:16.750Z,21.60
2018-06-05T15:54:45.560Z,21.70
2018-06-05T15:57:14.898Z,21.70
2018-06-05T15:59:44.016Z,21.50
2018-06-05T16:02:13.023Z,21.50
2018-06-05T16:04:42.249Z,21.40
2018-06-05T16:07:11.627Z,21.30
2018-06-05T16:09:40.444Z,21.30
2018-06-05T16:12:10.107Z,21.40
2018-06-05T16:14:38.843Z,21.40
2018-06-05T16:17:07.637Z,21.40
2018-06-05T16:19:36.503Z,21.40
2018-06-05T16:22:05.452Z,21.50
2018-06-05T16:24:34.258Z,21.40
2018-06-05T16:27:03.060Z,21.50
2018-06-05T16:29:31.851Z,21.40
2018-06-05T16:32:00.643Z,21.40
2018-06-05T16:34:29.985Z,21.30
2018-06-05T16:36:58.792Z,21.30
2018-06-05T16:39:27.664Z,21.30
2018-06-05T16:41:56.490Z,21.30
2018-06-05T16:44:25.273Z,21.30
2018-06-05T16:47:01.354Z,21.40
2018-06-05T16:49:37.509Z,21.40
2018-06-05T16:52:09.251Z,21.50
2018-06-05T16:54:42.727Z,21.40
2018-06-05T16:57:21.754Z,21.40
2018-06-05T16:59:52.279Z,21.40
2018-06-05T17:02:21.088Z,21.40
2018-06-05T17:04:49.909Z,21.30
2018-06-05T17:07:18.716Z,21.40
2018-06-05T17:09:47.533Z,21.40
2018-06-05T17:12:16.343Z,21.30
2018-06-05T17:14:45.155Z,21.30
2018-06-05T17:17:14.048Z,21.30
2018-06-05T17:19:42.864Z,21.40
2018-06-05T17:22:12.320Z,21.50
2018-06-05T17:24:41.145Z,21.50
2018-06-05T17:27:10.000Z,21.50
2018-06-05T17:29:38.770Z,21.50
2018-06-05T17:32:07.572Z,21.60
2018-06-05T17:34:36.411Z,21.50
2018-06-05T17:37:05.221Z,21.50
2018-06-05T17:39:34.019Z,21.40
2018-06-05T17:42:02.823Z,21.40
2018-06-05T17:44:31.631Z,21.40
2018-06-05T17:47:00.463Z,21.40
2018-06-05T17:49:29.272Z,21.40
2018-06-05T17:51:58.113Z,21.40
2018-06-05T17:54:26.928Z,21.30
2018-06-05T17:56:55.746Z,21.30
2018-06-05T17:59:24.640Z,21.30
2018-06-05T18:01:53.429Z,21.20
2018-06-05T18:04:22.238Z,21.20
2018-06-05T18:06:51.059Z,21.20
2018-06-05T18:09:19.855Z,21.20
2018-06-05T18:11:48.676Z,21.10
2018-06-05T18:14:17.471Z,21.10
2018-06-05T18:16:46.839Z,21.10
2018-06-05T18:19:15.643Z,21.10
2018-06-05T18:21:44.452Z,21.00
2018-06-05T18:24:13.251Z,20.90
2018-06-05T18:26:42.131Z,20.80
2018-06-05T18:29:10.866Z,20.70
2018-06-05T18:31:39.692Z,20.60
2018-06-05T18:34:08.488Z,20.50
2018-06-05T18:36:37.303Z,20.50
2018-06-05T18:39:07.882Z,20.30
2018-06-05T18:41:36.686Z,20.30
2018-06-05T18:44:05.501Z,20.20
2018-06-05T18:46:34.319Z,20.10
2018-06-05T18:49:03.123Z,20.00
2018-06-05T18:51:31.926Z,19.90
2018-06-05T18:54:00.727Z,19.80
2018-06-05T18:56:29.536Z,19.70
2018-06-05T18:58:58.338Z,19.70
2018-06-05T19:01:27.176Z,19.50
2018-06-05T19:03:56.033Z,19.50
2018-06-05T19:06:24.789Z,19.40
2018-06-05T19:08:53.599Z,19.30
2018-06-05T19:11:22.412Z,19.30
2018-06-05T19:13:51.302Z,19.20
2018-06-05T19:16:20.116Z,19.10
2018-06-05T19:18:48.928Z,19.00
2018-06-05T19:26:15.034Z,18.70
2018-06-05T19:28:43.845Z,18.70
2018-06-05T19:31:12.667Z,18.60
2018-06-05T19:33:41.466Z,18.50
2018-06-05T19:36:10.267Z,18.40
2018-06-05T19:38:39.106Z,18.40
2018-06-05T19:41:07.879Z,18.30
2018-06-05T19:43:37.537Z,18.20
2018-06-05T19:46:06.335Z,18.10
2018-06-05T19:48:35.203Z,18.10
2018-06-05T19:51:04.024Z,18.00
2018-06-05T19:53:32.851Z,17.90
2018-06-05T19:56:01.659Z,17.90
2018-06-05T20:03:27.775Z,17.70
2018-06-05T20:05:56.650Z,17.60
2018-06-05T20:08:25.566Z,17.60
2018-06-05T20:10:54.427Z,17.50
2018-06-05T20:13:23.223Z,17.50
2018-06-05T20:15:52.068Z,17.50
2018-06-05T20:18:20.916Z,17.50
2018-06-05T20:20:49.792Z,17.40
2018-06-05T20:23:18.551Z,17.40
2018-06-05T20:25:47.371Z,17.30
2018-06-05T20:28:16.212Z,17.30
2018-06-05T20:33:13.638Z,17.20
2018-06-05T20:35:42.483Z,17.20
2018-06-05T20:38:11.305Z,17.10
2018-06-05T20:40:40.126Z,17.10
2018-06-05T20:43:08.960Z,17.00
2018-06-05T20:45:37.783Z,16.90
2018-06-05T20:48:06.615Z,16.90
2018-06-05T20:53:04.035Z,16.80
2018-06-05T20:55:32.883Z,16.70
2018-06-05T20:58:01.827Z,16.70
2018-06-05T21:00:30.648Z,16.60
2018-06-05T21:05:28.051Z,16.50
2018-06-05T21:07:56.860Z,16.50
2018-06-05T21:10:25.682Z,16.50
2018-06-05T21:12:54.633Z,16.40
2018-06-05T21:15:23.457Z,16.40
2018-06-05T21:17:52.255Z,16.30
2018-06-05T21:20:21.062Z,16.30
2018-06-05T21:22:49.870Z,16.30
2018-06-05T21:25:18.779Z,16.20
2018-06-05T21:27:47.579Z,16.20
2018-06-05T21:30:16.447Z,16.20
2018-06-05T21:32:45.220Z,16.10
2018-06-05T21:35:14.020Z,16.10
2018-06-05T21:37:42.843Z,16.10
2018-06-05T21:40:11.668Z,16.10
2018-06-05T21:42:40.476Z,16.00
2018-06-05T21:45:09.327Z,16.00
2018-06-05T21:47:38.145Z,16.00
2018-06-05T21:50:06.955Z,15.90
2018-06-05T21:52:35.761Z,15.90
2018-06-05T21:55:04.684Z,15.90
2018-06-05T21:57:33.463Z,15.80
2018-06-05T22:00:02.298Z,15.80
2018-06-05T22:02:31.210Z,15.80
2018-06-05T22:05:00.003Z,15.80
2018-06-05T22:07:28.833Z,15.80
2018-06-05T22:09:57.651Z,15.70
2018-06-05T22:12:26.496Z,15.70
2018-06-05T22:14:55.316Z,15.70
2018-06-05T22:17:24.147Z,15.60
2018-06-05T22:19:52.964Z,15.60
2018-06-05T22:24:51.223Z,15.60
2018-06-05T22:27:20.133Z,15.60
2018-06-05T22:29:48.940Z,15.60
2018-06-05T22:32:17.815Z,15.50
2018-06-05T22:34:46.640Z,15.50
2018-06-05T22:37:15.470Z,15.50
2018-06-05T22:39:44.283Z,15.40
2018-06-05T22:42:13.108Z,15.40
2018-06-05T22:44:41.927Z,15.40
2018-06-05T22:47:10.844Z,15.40
2018-06-05T22:49:39.659Z,15.40
2018-06-05T22:54:37.080Z,15.40
2018-06-05T22:57:05.976Z,15.30
2018-06-05T22:59:34.791Z,15.30
2018-06-05T23:02:03.632Z,15.30
2018-06-05T23:04:32.458Z,15.30
2018-06-05T23:07:01.283Z,15.20
2018-06-05T23:09:30.455Z,15.20
2018-06-05T23:11:59.285Z,15.20
2018-06-05T23:14:28.202Z,15.10
2018-06-05T23:16:57.023Z,15.10
2018-06-05T23:19:26.849Z,15.10
2018-06-05T23:21:55.676Z,15.10
2018-06-05T23:24:24.499Z,15.10
2018-06-05T23:26:53.328Z,15.00
2018-06-05T23:29:22.142Z,15.00
2018-06-05T23:31:51.003Z,15.00
2018-06-05T23:34:19.836Z,15.00
2018-06-05T23:36:48.656Z,14.90
2018-06-05T23:39:17.488Z,14.90
2018-06-05T23:41:46.300Z,15.00
2018-06-05T23:44:15.221Z,14.90
2018-06-05T23:46:44.043Z,14.90
2018-06-05T23:49:12.863Z,14.90
2018-06-05T23:51:41.691Z,14.90
2018-06-05T23:54:10.523Z,14.90
2018-06-05T23:56:39.356Z,14.90
2018-06-05T23:59:08.181Z,14.90
